Time;durP1;ratioP1;P1;durP2;ratioP2;P2;SDS_P1;SDS_P2;PMS_P1;PMS_P2;Temp;Humidity;BMP_temperature;BMP_pressure;BME280_temperature;BME280_humidity;BME280_pressure;Samples;Min_cycle;Max_cycle;Signal;HPM_P1;HPM_P2
2022/03/02 00:01:28;;;;;;;5.27;2.57;;;0.70;56.50;-0.20;99109.00;;;;5114297;28;20228;-78
2022/03/02 00:03:54;;;;;;;1.37;1.37;;;0.60;56.70;-0.30;99114.00;;;;5114260;28;20221;-77
2022/03/02 00:06:21;;;;;;;2.17;2.07;;;0.70;56.90;-0.40;99117.00;;;;5114105;28;20197;-78
2022/03/02 00:08:47;;;;;;;3.97;3.00;;;0.60;57.10;-0.50;99104.00;;;;5114162;28;20296;-78
2022/03/02 00:11:16;;;;;;;2.37;2.17;;;0.50;57.60;-0.30;99101.00;;;;5114197;28;20226;-78
2022/03/02 00:13:43;;;;;;;3.27;3.03;;;0.50;58.50;-0.20;99085.00;;;;5114140;28;20255;-78
2022/03/02 00:16:10;;;;;;;10.90;3.40;;;0.70;57.30;-0.20;99088.00;;;;5114010;28;20277;-78
2022/03/02 00:18:36;;;;;;;2.93;2.50;;;0.70;57.40;-0.10;99107.00;;;;5114205;28;20411;-78
2022/03/02 00:21:03;;;;;;;1.50;1.47;;;0.70;57.40;-0.20;99098.00;;;;5114115;28;20293;-78
2022/03/02 00:23:29;;;;;;;1.67;1.57;;;0.70;57.40;-0.30;99083.00;;;;5113905;28;20221;-78
2022/03/02 00:25:56;;;;;;;3.80;3.17;;;0.70;57.70;-0.30;99077.00;;;;5114067;28;20293;-78
2022/03/02 00:28:26;;;;;;;3.20;3.00;;;0.70;57.60;-0.20;99082.00;;;;5113850;28;20214;-78
2022/03/02 00:30:52;;;;;;;12.17;3.87;;;0.70;58.00;-0.30;99086.00;;;;5113733;28;20566;-78
2022/03/02 00:33:19;;;;;;;2.07;1.90;;;0.70;58.00;-0.10;99099.00;;;;5113891;28;20289;-77
2022/03/02 00:35:46;;;;;;;2.17;2.07;;;0.70;58.20;-0.10;99099.00;;;;5113815;28;20190;-78
2022/03/02 00:38:13;;;;;;;3.20;2.27;;;0.70;58.00;-0.10;99103.00;;;;5115528;28;20298;-77
2022/03/02 00:40:40;;;;;;;3.77;3.47;;;0.80;57.60;-0.30;99098.00;;;;5117522;28;20202;-77
2022/03/02 00:43:09;;;;;;;2.00;1.83;;;0.70;57.90;-0.30;99091.00;;;;5099356;28;20244;-78
2022/03/02 00:45:39;;;;;;;2.47;2.37;;;0.70;58.00;-0.10;99090.00;;;;5116425;28;20213;-79
2022/03/02 00:48:08;;;;;;;2.47;2.27;;;0.70;59.10;-0.10;99102.00;;;;5117267;28;20214;-78
2022/03/02 00:50:36;;;;;;;2.43;2.23;;;0.80;58.10;0.00;99100.00;;;;5117170;28;20230;-78
2022/03/02 00:53:05;;;;;;;1.30;1.30;;;0.80;58.30;0.00;99087.00;;;;5099242;28;20213;-78
2022/03/02 00:55:33;;;;;;;3.27;3.00;;;0.90;57.90;-0.10;99094.00;;;;5117126;28;20187;-78
2022/03/02 00:58:00;;;;;;;1.93;1.83;;;0.80;57.60;-0.20;99084.00;;;;5099181;28;20280;-78
2022/03/02 01:00:26;;;;;;;1.77;1.67;;;0.80;57.90;-0.20;99048.00;;;;5099144;28;20293;-78
2022/03/02 01:02:54;;;;;;;1.80;1.70;;;0.70;58.00;-0.10;99087.00;;;;5099068;28;20225;-78
2022/03/02 01:05:21;;;;;;;1.97;1.67;;;0.80;58.00;0.10;99089.00;;;;5117330;28;20633;-78
2022/03/02 01:07:48;;;;;;;1.93;1.83;;;0.90;58.10;0.00;99084.00;;;;5116761;28;20221;-78
2022/03/02 01:10:15;;;;;;;1.80;1.70;;;0.90;57.70;0.00;99074.00;;;;5116733;28;20241;-80
2022/03/02 01:12:43;;;;;;;2.00;1.90;;;0.90;57.50;0.10;99079.00;;;;5116886;28;20218;-78
2022/03/02 01:15:11;;;;;;;1.17;1.17;;;0.90;57.60;0.20;99074.00;;;;5116815;28;20273;-79
2022/03/02 01:17:38;;;;;;;1.30;1.27;;;1.10;58.10;0.20;99067.00;;;;5098860;28;20222;-78
2022/03/02 01:20:09;;;;;;;1.43;1.37;;;1.00;57.50;0.10;99034.00;;;;5116760;28;20204;-79
2022/03/02 01:22:37;;;;;;;2.87;2.37;;;1.00;57.10;0.10;99067.00;;;;5117040;28;20278;-78
2022/03/02 01:25:06;;;;;;;2.27;2.13;;;1.00;57.90;0.10;99057.00;;;;5118478;28;20637;-79
2022/03/02 01:27:33;;;;;;;1.67;1.57;;;0.90;57.10;0.00;99059.00;;;;5116742;28;20217;-79
2022/03/02 01:30:00;;;;;;;1.80;1.70;;;0.90;57.30;0.00;99056.00;;;;5116553;28;20278;-79
2022/03/02 01:32:27;;;;;;;3.07;2.87;;;0.90;58.00;0.00;99044.00;;;;5116568;28;20205;-78
2022/03/02 01:34:53;;;;;;;6.60;3.60;;;0.90;58.10;-0.10;99036.00;;;;5117338;28;20293;-78
2022/03/02 01:37:20;;;;;;;1.37;1.37;;;0.80;58.30;-0.10;99038.00;;;;5117214;28;20301;-79
2022/03/02 01:39:48;;;;;;;2.70;2.50;;;0.80;58.70;-0.10;99030.00;;;;5103140;28;20550;-77
2022/03/02 01:42:17;;;;;;;1.63;1.47;;;0.70;58.70;-0.10;99026.00;;;;5099549;28;20629;-77
2022/03/02 01:44:44;;;;;;;2.73;1.67;;;0.80;58.50;0.00;99029.00;;;;5116451;28;20190;-78
2022/03/02 01:47:10;;;;;;;2.17;2.07;;;0.80;59.00;-0.10;99028.00;;;;5116182;28;20206;-78
2022/03/02 01:49:37;;;;;;;1.50;1.47;;;0.80;58.70;-0.10;99033.00;;;;5115470;28;20245;-78
2022/03/02 01:52:04;;;;;;;10.03;2.90;;;0.80;58.40;-0.20;99023.00;;;;5116395;28;20186;-78
2022/03/02 01:54:31;;;;;;;1.50;1.43;;;0.70;58.30;-0.10;99023.00;;;;5116262;28;20190;-78
2022/03/02 01:56:58;;;;;;;1.63;1.53;;;0.80;58.00;0.00;99009.00;;;;5115985;28;20233;-78
2022/03/02 01:59:27;;;;;;;1.37;1.37;;;0.80;58.00;0.00;99017.00;;;;5116017;28;20280;-78
2022/03/02 02:01:53;;;;;;;3.90;1.60;;;0.80;57.70;-0.10;99002.00;;;;5116111;28;20194;-78
2022/03/02 02:04:20;;;;;;;1.53;1.53;;;0.90;57.20;-0.10;98991.00;;;;5116234;28;20199;-78
2022/03/02 02:06:46;;;;;;;1.67;1.57;;;0.90;57.90;0.00;98986.00;;;;5115953;28;20210;-78
2022/03/02 02:09:13;;;;;;;2.90;2.00;;;0.90;57.10;0.00;98987.00;;;;5116056;28;20189;-77
2022/03/02 02:11:40;;;;;;;1.90;1.77;;;0.90;57.10;0.00;98987.00;;;;5116207;28;20227;-77
2022/03/02 02:14:09;;;;;;;1.67;1.57;;;0.80;57.30;0.00;98983.00;;;;5099159;28;20582;-78
2022/03/02 02:16:38;;;;;;;1.73;1.53;;;0.90;57.20;0.00;98978.00;;;;5116218;28;20226;-77
2022/03/02 02:19:05;;;;;;;2.23;2.10;;;0.80;57.10;-0.10;98990.00;;;;5116133;28;20211;-78
2022/03/02 02:21:35;;;;;;;1.97;1.87;;;0.80;57.70;-0.10;98976.00;;;;5115822;28;20197;-78
2022/03/02 02:24:01;;;;;;;1.73;1.63;;;0.80;58.00;-0.20;98969.00;;;;5115841;28;20541;-77
2022/03/02 02:26:28;;;;;;;2.13;2.03;;;0.80;57.80;-0.20;98973.00;;;;5115830;28;20547;-78
2022/03/02 02:28:56;;;;;;;1.73;1.63;;;0.80;57.60;-0.30;98963.00;;;;5115588;28;20306;-78
2022/03/02 02:31:22;;;;;;;3.90;2.57;;;0.70;57.50;-0.10;98946.00;;;;5115755;28;20673;-78
2022/03/02 02:33:51;;;;;;;1.60;1.33;;;0.80;57.60;-0.20;98952.00;;;;5115577;28;20190;-79
2022/03/02 02:36:18;;;;;;;16.13;1.83;;;0.80;56.90;-0.10;98965.00;;;;5115513;28;20225;-77
2022/03/02 02:38:45;;;;;;;2.37;2.27;;;0.80;57.80;-0.10;98963.00;;;;5115608;28;20209;-78
2022/03/02 02:41:12;;;;;;;1.40;1.30;;;0.80;57.50;-0.20;98976.00;;;;5115595;28;20289;-78
2022/03/02 02:43:42;;;;;;;2.20;2.10;;;0.80;57.50;-0.20;98974.00;;;;5115398;28;20230;-77
2022/03/02 02:46:11;;;;;;;2.00;1.90;;;0.70;57.60;-0.50;98980.00;;;;5115598;28;20251;-78
2022/03/02 02:48:38;;;;;;;1.63;1.53;;;0.60;57.90;-0.60;98968.00;;;;5115186;28;20250;-79
2022/03/02 02:51:05;;;;;;;1.90;1.80;;;0.40;58.50;-0.50;98968.00;;;;5115284;28;20205;-79
2022/03/02 02:53:34;;;;;;;2.33;1.70;;;0.40;59.10;-0.50;98968.00;;;;5115251;28;20233;-78
2022/03/02 02:56:03;;;;;;;2.20;2.00;;;0.40;58.90;-0.50;98964.00;;;;5097147;28;20661;-78
2022/03/02 02:58:30;;;;;;;1.43;1.33;;;0.50;58.90;-0.50;98973.00;;;;5115232;28;20271;-78
2022/03/02 03:01:00;;;;;;;2.10;2.00;;;0.40;58.80;-0.40;98969.00;;;;5114110;28;20194;-79
2022/03/02 03:03:26;;;;;;;5.00;3.20;;;0.40;58.80;-0.50;98963.00;;;;5115041;28;20708;-78
2022/03/02 03:05:53;;;;;;;1.90;1.80;;;0.40;58.30;-0.50;98961.00;;;;5115076;28;20300;-78
2022/03/02 03:08:20;;;;;;;1.60;1.53;;;0.40;58.50;-0.50;98968.00;;;;5115100;28;20213;-77
2022/03/02 03:10:48;;;;;;;2.03;1.70;;;0.30;58.80;-0.60;98978.00;;;;5115323;28;20186;-78
2022/03/02 03:13:17;;;;;;;2.10;1.90;;;0.30;58.60;-0.70;98961.00;;;;5115229;28;20213;-78
2022/03/02 03:15:46;;;;;;;2.60;2.43;;;0.30;58.70;-0.80;98959.00;;;;5114917;28;20321;-76
2022/03/02 03:18:12;;;;;;;1.83;1.73;;;0.30;59.00;-0.70;98966.00;;;;5115022;28;20228;-79
2022/03/02 03:20:41;;;;;;;2.73;1.80;;;0.20;59.10;-0.90;98959.00;;;;5115024;28;20266;-78
2022/03/02 03:23:10;;;;;;;1.27;1.27;;;0.10;59.20;-1.00;98954.00;;;;5114882;28;20217;-78
2022/03/02 03:25:37;;;;;;;2.00;1.90;;;0.00;59.40;-1.00;98914.00;;;;5114902;28;20258;-78
2022/03/02 03:28:05;;;;;;;2.83;2.07;;;0.00;60.50;-1.00;98939.00;;;;5114791;28;20217;-78
2022/03/02 03:30:33;;;;;;;3.07;2.77;;;0.00;59.90;-1.00;98943.00;;;;5114834;28;20485;-78
2022/03/02 03:33:04;;;;;;;1.83;1.73;;;-0.10;59.90;-0.90;98934.00;;;;5114762;28;20202;-79
2022/03/02 03:35:32;;;;;;;1.67;1.53;;;0.00;60.70;-1.00;98943.00;;;;5114645;28;20197;-78
2022/03/02 03:37:58;;;;;;;2.53;2.33;;;0.00;59.80;-1.10;98943.00;;;;5114807;28;20327;-79
2022/03/02 03:40:27;;;;;;;2.13;2.03;;;-0.10;59.70;-1.10;98950.00;;;;5114715;28;20224;-79
2022/03/02 03:42:55;;;;;;;1.77;1.67;;;-0.10;59.60;-1.20;98946.00;;;;5114429;28;20305;-78
2022/03/02 03:45:21;;;;;;;1.63;1.27;;;-0.20;59.10;-1.20;98948.00;;;;5114534;28;20232;-78
2022/03/02 03:47:49;;;;;;;1.67;1.63;;;-0.20;59.40;-1.20;98948.00;;;;5096612;28;20652;-78
2022/03/02 03:50:19;;;;;;;2.47;1.87;;;-0.20;59.50;-1.10;98948.00;;;;5114423;28;20221;-77
2022/03/02 03:52:48;;;;;;;2.57;1.87;;;-0.20;59.90;-1.20;98944.00;;;;5114549;28;20201;-78
2022/03/02 03:55:17;;;;;;;1.50;1.50;;;-0.20;60.00;-1.10;98938.00;;;;5114324;28;20200;-78
2022/03/02 03:57:44;;;;;;;1.53;1.50;;;-0.20;60.20;-1.00;98935.00;;;;5114398;28;20222;-79
2022/03/02 04:00:14;;;;;;;1.10;1.10;;;-0.20;60.20;-1.00;98941.00;;;;5114863;28;20213;-78
2022/03/02 04:02:41;;;;;;;2.40;1.97;;;-0.20;59.80;-1.10;98937.00;;;;5096570;28;20274;-78
2022/03/02 04:05:09;;;;;;;2.23;2.13;;;-0.20;60.00;-1.30;98940.00;;;;5114430;28;20267;-78
2022/03/02 04:07:38;;;;;;;1.37;1.30;;;-0.30;59.60;-1.40;98943.00;;;;5114327;28;20209;-78
2022/03/02 04:10:07;;;;;;;1.87;1.77;;;-0.30;60.00;-1.40;98941.00;;;;5114231;28;20297;-78
2022/03/02 04:12:34;;;;;;;2.50;2.30;;;-0.40;60.00;-1.50;98929.00;;;;5115036;28;20674;-77
2022/03/02 04:15:00;;;;;;;2.53;2.13;;;-0.50;60.50;-1.30;98932.00;;;;5117981;28;20217;-78
2022/03/02 04:17:27;;;;;;;2.37;2.23;;;-0.40;60.80;-1.20;98936.00;;;;5117731;28;20251;-78
2022/03/02 04:19:54;;;;;;;1.87;1.77;;;-0.30;60.80;-1.30;98929.00;;;;5117770;28;20677;-78
2022/03/02 04:22:21;;;;;;;2.40;1.70;;;-0.30;60.60;-1.40;98925.00;;;;5117627;28;20315;-78
2022/03/02 04:24:47;;;;;;;2.60;2.43;;;-0.40;60.50;-1.40;98923.00;;;;5117676;28;20194;-78
2022/03/02 04:27:14;;;;;;;2.07;1.97;;;-0.40;61.70;-1.40;98922.00;;;;5117585;28;20241;-78
2022/03/02 04:29:41;;;;;;;0.80;0.80;;;-0.40;61.20;-1.40;98921.00;;;;5117561;28;20221;-77
2022/03/02 04:32:09;;;;;;;2.70;2.50;;;-0.40;61.20;-1.50;98907.00;;;;5117624;28;20208;-77
2022/03/02 04:34:36;;;;;;;5.97;2.93;;;-0.50;60.50;-1.40;98905.00;;;;5117646;28;20285;-78
2022/03/02 04:37:03;;;;;;;4.27;3.20;;;-0.50;60.80;-1.50;98893.00;;;;5099744;28;20236;-78
2022/03/02 04:39:30;;;;;;;2.07;1.97;;;-0.50;60.60;-1.50;98886.00;;;;5117417;28;20238;-77
2022/03/02 04:41:57;;;;;;;4.97;2.33;;;-0.50;60.70;-1.40;98890.00;;;;5117365;28;20302;-78
2022/03/02 04:44:23;;;;;;;1.43;1.43;;;-0.50;61.10;-1.50;98889.00;;;;5117494;28;20502;-78
2022/03/02 04:46:52;;;;;;;2.33;2.17;;;-0.50;60.80;-1.60;98888.00;;;;5117429;28;20202;-79
2022/03/02 04:49:21;;;;;;;2.73;2.27;;;-0.60;60.70;-1.70;98888.00;;;;5117258;28;20290;-77
2022/03/02 04:51:49;;;;;;;2.37;2.00;;;-0.70;61.40;-1.70;98891.00;;;;5117526;28;20212;-78
2022/03/02 04:57:08;;;;;;;2.17;1.30;;;-0.70;61.70;-1.80;98884.00;;;;5119028;28;20645;-79
2022/03/02 04:59:34;;;;;;;1.73;1.63;;;-0.70;61.90;-1.70;98875.00;;;;5118727;28;20222;-78
2022/03/02 05:02:04;;;;;;;2.13;1.93;;;-0.70;62.20;-1.50;98879.00;;;;5117836;28;20232;-76
2022/03/02 05:04:30;;;;;;;1.53;1.43;;;-0.60;62.10;-1.40;98883.00;;;;5099734;28;20208;-78
2022/03/02 05:06:57;;;;;;;1.63;1.53;;;-0.60;62.10;-1.60;98888.00;;;;5116961;28;20211;-77
2022/03/02 05:09:23;;;;;;;1.77;1.67;;;-0.60;61.50;-1.80;98875.00;;;;5117707;28;20304;-78
2022/03/02 05:11:50;;;;;;;2.47;2.33;;;-0.70;61.90;-1.90;98885.00;;;;5118053;28;20280;-78
2022/03/02 05:14:17;;;;;;;2.57;2.37;;;-0.80;62.50;-1.90;98877.00;;;;5122588;28;20286;-77
2022/03/02 05:16:44;;;;;;;2.20;2.10;;;-0.90;63.00;-1.90;98873.00;;;;5117375;28;20220;-76
2022/03/02 05:19:10;;;;;;;3.83;3.20;;;-0.90;64.20;-1.80;98865.00;;;;5116747;28;20225;-77
2022/03/02 05:21:37;;;;;;;1.63;1.53;;;-0.90;63.30;-1.50;98872.00;;;;5116636;28;20207;-77
2022/03/02 05:24:05;;;;;;;2.63;1.93;;;-0.70;63.90;-1.80;98874.00;;;;5115678;28;20201;-77
2022/03/02 05:26:32;;;;;;;2.37;2.17;;;-0.80;62.60;-1.80;98874.00;;;;5116812;28;20214;-78
2022/03/02 05:28:58;;;;;;;1.80;1.70;;;-0.80;63.20;-1.70;98869.00;;;;5116587;28;20237;-77
2022/03/02 05:31:25;;;;;;;2.37;2.27;;;-0.80;63.40;-1.60;98868.00;;;;5116697;28;20237;-78
2022/03/02 05:33:54;;;;;;;1.70;1.60;;;-0.70;63.20;-1.70;98882.00;;;;5098964;28;20642;-78
2022/03/02 05:36:21;;;;;;;6.37;3.13;;;-0.70;63.00;-1.70;98872.00;;;;5116553;28;20229;-78
2022/03/02 05:38:48;;;;;;;4.53;1.90;;;-0.70;63.90;-1.80;98872.00;;;;5116630;28;20268;-78
2022/03/02 05:41:17;;;;;;;3.60;3.13;;;-0.70;63.00;-1.80;98859.00;;;;5116463;28;20189;-78
2022/03/02 05:43:43;;;;;;;1.77;1.67;;;-0.80;63.10;-1.80;98867.00;;;;5116522;28;20301;-78
2022/03/02 05:46:10;;;;;;;1.60;1.50;;;-0.90;63.20;-1.70;98871.00;;;;5116355;28;20284;-78
2022/03/02 05:48:37;;;;;;;4.80;2.37;;;-0.80;63.50;-1.90;98867.00;;;;5116290;28;20228;-78
2022/03/02 05:51:06;;;;;;;2.00;1.50;;;-0.90;63.30;-1.80;98859.00;;;;5116391;28;20293;-78
2022/03/02 05:53:34;;;;;;;1.87;1.77;;;-0.80;63.50;-1.70;98867.00;;;;5116378;28;20272;-78
2022/03/02 05:56:00;;;;;;;5.23;2.00;;;-0.80;63.40;-1.50;98867.00;;;;5098404;28;20230;-78
2022/03/02 05:58:27;;;;;;;2.67;2.47;;;-0.70;63.40;-1.50;98862.00;;;;5116211;28;20225;-78
2022/03/02 06:00:53;;;;;;;1.83;1.73;;;-0.60;63.00;-1.50;98867.00;;;;5116184;28;20224;-78
2022/03/02 06:03:20;;;;;;;3.20;2.57;;;-0.60;63.30;-1.50;98860.00;;;;5116068;28;20244;-78
2022/03/02 06:05:48;;;;;;;6.00;2.77;;;-0.50;62.50;-1.50;98872.00;;;;5115982;28;20209;-78
2022/03/02 06:08:14;;;;;;;2.53;2.33;;;-0.60;62.40;-1.40;98867.00;;;;5098321;28;20525;-78
2022/03/02 06:10:42;;;;;;;1.47;1.37;;;-0.50;62.50;-1.40;98882.00;;;;5098183;28;20205;-78
2022/03/02 06:13:10;;;;;;;1.13;1.13;;;-0.50;62.50;-1.30;98863.00;;;;5115881;28;20285;-78
2022/03/02 06:15:37;;;;;;;2.00;1.90;;;-0.50;62.50;-1.50;98865.00;;;;5115783;28;20222;-78
2022/03/02 06:18:05;;;;;;;1.70;1.57;;;-0.50;62.30;-1.40;98860.00;;;;5115773;28;20271;-77
2022/03/02 06:20:33;;;;;;;1.63;1.53;;;-0.50;62.80;-1.30;98861.00;;;;5115863;28;20212;-77
2022/03/02 06:23:02;;;;;;;1.87;1.77;;;-0.40;62.70;-1.20;98851.00;;;;5097851;28;20316;-77
2022/03/02 06:25:30;;;;;;;3.90;1.77;;;-0.30;62.90;-1.20;98856.00;;;;5115776;28;20232;-77
2022/03/02 06:27:56;;;;;;;2.43;2.30;;;-0.30;62.60;-1.20;98859.00;;;;5115623;28;20198;-78
2022/03/02 06:30:23;;;;;;;2.50;2.37;;;-0.30;63.00;-1.10;98855.00;;;;5115728;28;20210;-78
2022/03/02 06:32:50;;;;;;;1.87;1.77;;;-0.30;63.10;-1.00;98853.00;;;;5115682;28;20240;-80
2022/03/02 06:35:16;;;;;;;3.83;2.53;;;-0.10;63.30;-1.00;98854.00;;;;5115245;28;20648;-78
2022/03/02 06:37:43;;;;;;;2.07;1.87;;;-0.10;63.40;-0.90;98851.00;;;;5115506;28;20237;-79
2022/03/02 06:40:13;;;;;;;2.17;2.07;;;0.00;63.50;-0.90;98861.00;;;;5097703;28;20205;-78
2022/03/02 06:42:59;;;;;;;1.23;1.23;;;0.00;63.30;-0.60;98867.00;;;;5115703;28;20213;-78
2022/03/02 06:45:44;;;;;;;1.93;1.83;;;0.20;63.50;-0.80;98869.00;;;;5115588;28;20319;-77
2022/03/02 06:48:13;;;;;;;3.23;2.83;;;0.20;62.50;-0.70;98869.00;;;;5115372;28;20679;-77
2022/03/02 06:50:44;;;;;;;4.43;2.17;;;0.20;62.30;-0.80;98871.00;;;;5115439;28;20198;-78
2022/03/02 06:53:14;;;;;;;1.20;1.20;;;0.20;61.90;-0.80;98868.00;;;;5115360;28;20216;-77
2022/03/02 06:55:45;;;;;;;1.87;1.77;;;0.10;62.10;-0.60;98872.00;;;;5115289;28;20263;-78
2022/03/02 06:58:14;;;;;;;4.40;1.97;;;0.20;62.40;-0.50;98876.00;;;;5115191;28;20269;-78
2022/03/02 07:00:53;;;;;;;1.93;1.77;;;0.30;62.20;-0.50;98870.00;;;;5115227;28;20217;-78
2022/03/02 07:03:24;;;;;;;3.03;2.03;;;0.40;61.70;-0.50;98865.00;;;;5115136;28;20197;-78
2022/03/02 07:05:53;;;;;;;2.20;2.10;;;0.40;61.40;-0.30;98870.00;;;;5115319;28;20255;-79
2022/03/02 07:08:24;;;;;;;2.90;1.87;;;0.50;61.40;-0.30;98879.00;;;;5115058;28;20222;-77
2022/03/02 07:10:52;;;;;;;1.60;1.50;;;0.60;61.10;-0.30;98883.00;;;;5115143;28;20225;-78
2022/03/02 07:13:18;;;;;;;1.90;1.80;;;0.60;61.30;-0.10;98876.00;;;;5114869;28;20206;-78
2022/03/02 07:15:46;;;;;;;1.87;1.73;;;0.70;61.60;-0.10;98874.00;;;;5115010;28;20218;-77
2022/03/02 07:18:15;;;;;;;1.33;1.33;;;0.80;61.30;-0.10;98871.00;;;;5114976;28;20237;-78
2022/03/02 07:20:43;;;;;;;2.87;2.30;;;0.90;60.70;-0.10;98874.00;;;;5097069;28;20202;-77
2022/03/02 07:23:15;;;;;;;4.70;2.73;;;0.80;60.30;0.00;98880.00;;;;5114741;28;20194;-76
2022/03/02 07:25:44;;;;;;;4.00;3.40;;;0.80;60.00;-0.20;98871.00;;;;5114884;28;20202;-82
2022/03/02 07:28:16;;;;;;;2.77;2.57;;;0.80;60.10;0.10;98864.00;;;;5096825;28;20320;-76
2022/03/02 07:30:46;;;;;;;1.83;1.73;;;0.90;60.10;0.20;98873.00;;;;5096930;28;20247;-77
2022/03/02 07:33:15;;;;;;;3.30;3.00;;;1.00;59.80;0.30;98864.00;;;;5114798;28;20223;-75
2022/03/02 07:35:54;;;;;;;2.83;2.50;;;1.20;59.60;0.50;98878.00;;;;5114719;28;20190;-74
2022/03/02 07:38:21;;;;;;;2.03;1.93;;;1.30;59.50;0.60;98875.00;;;;5114543;28;20315;-75
2022/03/02 07:40:49;;;;;;;2.37;2.20;;;1.40;58.90;0.60;98882.00;;;;5096927;28;20320;-74
2022/03/02 07:43:16;;;;;;;3.30;3.03;;;1.40;58.90;0.70;98880.00;;;;5114622;28;20285;-74
2022/03/02 07:45:43;;;;;;;1.70;1.60;;;1.50;58.80;0.50;98882.00;;;;5114589;28;20570;-75
2022/03/02 07:48:10;;;;;;;2.30;2.10;;;1.50;57.60;0.50;98874.00;;;;5113749;28;20439;-74
2022/03/02 07:50:39;;;;;;;2.70;2.50;;;1.40;57.30;0.60;98871.00;;;;5096713;28;20203;-75
2022/03/02 07:53:08;;;;;;;5.50;2.73;;;1.40;57.60;0.60;98871.00;;;;5114443;28;20308;-77
2022/03/02 07:55:35;;;;;;;2.80;2.63;;;1.50;57.80;0.80;98871.00;;;;5114365;28;20228;-75
2022/03/02 07:58:04;;;;;;;1.70;1.57;;;1.60;57.70;0.80;98872.00;;;;5096532;28;20218;-75
2022/03/02 08:00:31;;;;;;;2.03;1.80;;;1.70;56.90;0.80;98874.00;;;;5114344;28;20231;-75
2022/03/02 08:03:00;;;;;;;2.57;2.37;;;1.70;57.50;1.00;98861.00;;;;5114332;28;20228;-74
2022/03/02 08:05:27;;;;;;;2.60;2.40;;;1.80;57.60;1.10;98877.00;;;;5114129;28;20201;-74
2022/03/02 08:07:53;;;;;;;6.70;2.50;;;1.90;57.40;1.30;98878.00;;;;5114338;28;20290;-75
2022/03/02 08:10:20;;;;;;;3.27;1.97;;;2.10;56.50;1.30;98879.00;;;;5096462;28;20680;-75
2022/03/02 08:12:47;;;;;;;2.33;2.23;;;2.20;56.30;1.40;98878.00;;;;5114055;28;20242;-74
2022/03/02 08:15:16;;;;;;;2.80;2.60;;;2.20;56.10;1.40;98877.00;;;;5114189;28;20629;-74
2022/03/02 08:17:45;;;;;;;1.93;1.83;;;2.20;55.50;1.50;98882.00;;;;5114124;28;20222;-74
2022/03/02 08:20:14;;;;;;;3.57;1.60;;;2.30;56.00;1.60;98889.00;;;;5114142;28;20207;-73
2022/03/02 08:22:45;;;;;;;2.80;2.57;;;2.40;55.60;1.80;98885.00;;;;5096255;28;20243;-76
2022/03/02 08:25:12;;;;;;;3.73;3.43;;;2.60;55.40;2.00;98885.00;;;;5114017;28;20345;-73
2022/03/02 08:27:41;;;;;;;4.90;2.87;;;2.70;55.20;2.20;98885.00;;;;5114011;28;20197;-73
2022/03/02 08:30:10;;;;;;;2.23;2.13;;;2.90;55.10;2.40;98888.00;;;;5114036;28;20240;-76
2022/03/02 08:32:41;;;;;;;1.40;1.40;;;3.10;54.80;2.60;98877.00;;;;5114229;28;20226;-74
2022/03/02 08:35:10;;;;;;;2.90;1.93;;;3.20;53.30;2.80;98872.00;;;;5114381;28;20197;-77
2022/03/02 08:37:39;;;;;;;1.10;1.03;;;3.40;52.60;2.80;98851.00;;;;5114689;28;20259;-74
2022/03/02 08:40:08;;;;;;;1.90;1.57;;;3.50;52.20;2.90;98877.00;;;;5116320;28;20244;-73
2022/03/02 08:42:38;;;;;;;1.57;1.47;;;3.60;51.10;3.00;98862.00;;;;5114393;28;20638;-74
2022/03/02 08:45:06;;;;;;;2.13;1.47;;;3.80;51.10;3.20;98860.00;;;;5113838;28;20321;-75
2022/03/02 08:47:33;;;;;;;2.00;1.80;;;3.90;50.40;3.30;98855.00;;;;5114128;28;20220;-74
2022/03/02 08:50:00;;;;;;;1.93;1.80;;;4.00;49.80;3.50;98846.00;;;;5114482;28;20230;-75
2022/03/02 08:52:30;;;;;;;2.43;2.23;;;4.10;48.90;3.60;98849.00;;;;5118950;28;20209;-76
2022/03/02 08:55:04;;;;;;;2.03;1.27;;;4.30;48.90;3.80;98860.00;;;;5114088;28;20257;-75
2022/03/02 08:57:32;;;;;;;7.73;2.93;;;4.40;48.90;3.80;98846.00;;;;5095824;28;20606;-76
2022/03/02 09:00:00;;;;;;;2.20;2.00;;;4.50;48.40;4.10;98849.00;;;;5116443;28;20271;-74
2022/03/02 09:02:29;;;;;;;2.43;2.23;;;4.60;47.90;4.10;98851.00;;;;5117141;28;20193;-75
2022/03/02 09:05:01;;;;;;;2.87;2.67;;;4.80;47.30;4.20;98849.00;;;;5117077;28;20233;-76
2022/03/02 09:07:29;;;;;;;2.13;2.03;;;4.80;47.50;4.30;98850.00;;;;5117094;28;20186;-74
2022/03/02 09:10:00;;;;;;;1.40;1.33;;;5.00;47.00;4.50;98841.00;;;;5116911;28;20246;-75
2022/03/02 09:12:28;;;;;;;3.43;2.00;;;5.10;47.00;4.70;98849.00;;;;5117031;28;20202;-76
2022/03/02 09:14:58;;;;;;;2.17;2.07;;;5.30;46.60;4.90;98848.00;;;;5116844;28;20210;-76
2022/03/02 09:17:25;;;;;;;3.00;2.80;;;5.50;46.30;5.10;98849.00;;;;5116814;28;20273;-75
2022/03/02 09:19:52;;;;;;;1.83;1.70;;;5.60;45.20;5.10;98850.00;;;;5099116;28;20202;-75
2022/03/02 09:22:24;;;;;;;1.80;1.70;;;5.70;45.80;5.20;98858.00;;;;5116970;28;20221;-75
2022/03/02 09:24:53;;;;;;;9.60;2.10;;;5.80;45.10;5.20;98837.00;;;;5116748;28;20543;-75
2022/03/02 09:27:27;;;;;;;1.57;1.53;;;5.90;44.00;5.40;98856.00;;;;5116771;28;20304;-75
2022/03/02 09:29:57;;;;;;;3.70;3.07;;;5.90;43.60;5.40;98844.00;;;;5116650;28;20244;-76
2022/03/02 09:32:25;;;;;;;1.83;1.73;;;6.00;43.50;5.50;98846.00;;;;5116700;28;20195;-76
2022/03/02 09:34:57;;;;;;;2.07;1.97;;;6.10;44.10;5.50;98839.00;;;;5116499;28;20678;-76
2022/03/02 09:37:27;;;;;;;2.17;1.97;;;6.20;42.30;5.70;98840.00;;;;5116592;28;20198;-76
2022/03/02 09:39:55;;;;;;;2.43;2.33;;;6.30;42.40;5.80;98846.00;;;;5116581;28;20197;-77
2022/03/02 09:42:27;;;;;;;4.63;2.33;;;6.40;42.30;5.80;98839.00;;;;5116539;28;20516;-74
2022/03/02 09:45:01;;;;;;;3.10;2.90;;;6.40;42.20;5.90;98840.00;;;;5116507;28;20194;-75
2022/03/02 09:47:43;;;;;;;1.77;1.67;;;6.50;42.10;6.00;98851.00;;;;5116417;28;20504;-75
2022/03/02 09:50:13;;;;;;;3.43;2.43;;;6.60;42.50;6.20;98846.00;;;;5116452;28;20224;-75
2022/03/02 09:52:45;;;;;;;7.83;2.47;;;6.70;41.90;6.20;98838.00;;;;5098417;28;20194;-77
2022/03/02 09:55:16;;;;;;;2.40;2.20;;;6.80;41.60;6.40;98844.00;;;;5116265;28;20381;-73
2022/03/02 09:57:45;;;;;;;1.93;1.83;;;6.90;40.70;6.50;98836.00;;;;5116182;28;20274;-75
2022/03/02 10:00:16;;;;;;;4.83;2.50;;;7.00;40.00;6.60;98827.00;;;;5116149;28;20273;-75
2022/03/02 10:02:47;;;;;;;1.67;1.60;;;7.10;39.60;6.80;98839.00;;;;5098668;28;20677;-74
2022/03/02 10:05:17;;;;;;;1.80;1.70;;;7.30;38.90;6.90;98831.00;;;;5116207;28;20320;-74
2022/03/02 10:07:58;;;;;;;2.87;2.67;;;7.40;38.60;7.10;98814.00;;;;5116080;28;20688;-76
2022/03/02 10:10:28;;;;;;;1.67;1.57;;;7.60;37.90;7.20;98827.00;;;;5115485;28;20615;-75
2022/03/02 10:12:58;;;;;;;2.47;1.93;;;7.70;37.60;7.30;98822.00;;;;5115888;28;20671;-74
2022/03/02 10:15:25;;;;;;;4.90;3.47;;;7.80;37.30;7.30;98822.00;;;;5116038;28;20265;-75
2022/03/02 10:17:54;;;;;;;1.93;1.83;;;7.90;37.20;7.40;98824.00;;;;5115956;28;20224;-76
2022/03/02 10:20:24;;;;;;;2.07;1.97;;;7.90;36.70;7.20;98822.00;;;;5115916;28;20224;-76
2022/03/02 10:23:32;;;;;;;3.03;1.50;;;7.80;36.30;7.30;98834.00;;;;5115997;28;20196;-73
2022/03/02 10:26:16;;;;;;;2.40;2.20;;;7.90;36.20;7.30;98822.00;;;;5112626;28;20264;-74
2022/03/02 10:28:53;;;;;;;4.73;2.13;;;7.90;36.30;7.20;98832.00;;;;5115865;28;20207;-74
2022/03/02 10:31:42;;;;;;;3.40;3.03;;;7.90;36.20;7.30;98830.00;;;;5115485;28;20216;-73
2022/03/02 10:34:36;;;;;;;4.07;2.63;;;7.90;36.30;7.40;98829.00;;;;5115656;28;20198;-73
2022/03/02 10:37:26;;;;;;;2.90;2.57;;;7.90;35.50;7.30;98832.00;;;;5115559;28;20199;-74
2022/03/02 10:40:10;;;;;;;2.93;2.67;;;7.90;35.50;7.20;98824.00;;;;5097590;28;20295;-74
2022/03/02 10:42:41;;;;;;;3.60;2.80;;;7.80;35.90;7.30;98827.00;;;;5115563;28;20217;-76
2022/03/02 10:45:22;;;;;;;1.57;1.47;;;7.80;35.80;7.10;98827.00;;;;5115416;28;20250;-75
2022/03/02 10:48:01;;;;;;;2.47;2.27;;;7.80;35.90;7.00;98825.00;;;;5115406;28;20656;-74
2022/03/02 10:50:32;;;;;;;2.97;2.77;;;7.70;35.80;7.20;98813.00;;;;5115420;28;20645;-75
2022/03/02 10:52:59;;;;;;;1.67;1.57;;;7.80;35.80;7.10;98814.00;;;;5115266;28;20209;-76
2022/03/02 10:55:27;;;;;;;3.63;2.57;;;7.70;35.60;7.10;98809.00;;;;5115304;28;20235;-75
2022/03/02 10:57:55;;;;;;;3.50;2.70;;;7.70;35.50;7.20;98807.00;;;;5115191;28;20215;-76
2022/03/02 11:00:24;;;;;;;1.33;1.33;;;7.80;35.40;7.40;98803.00;;;;5115283;28;20257;-75
2022/03/02 11:02:57;;;;;;;3.03;1.90;;;7.90;35.50;7.30;98803.00;;;;5115189;28;20319;-76
2022/03/02 11:05:29;;;;;;;2.10;1.67;;;8.00;35.00;7.40;98803.00;;;;5115359;28;20194;-76
2022/03/02 11:07:56;;;;;;;4.33;3.20;;;8.00;34.70;7.30;98794.00;;;;5115318;28;20233;-77
2022/03/02 11:10:31;;;;;;;2.63;1.80;;;8.00;35.20;7.60;98799.00;;;;5115076;28;20221;-77
2022/03/02 11:13:05;;;;;;;1.37;1.33;;;8.10;35.00;7.70;98788.00;;;;5115107;28;20196;-74